Weather at Nuevitas Airport

Public forecast

Using degrees Celsius for public forecast. Weather courtesy of forecast.io.

Closest aviation weather report (METAR) to Nuevitas Airport

Closest report is Ignacio Agramonte International Airport, 33.9 nm (62.7 km) WSW.

2024/06/16 12:50 (retrieved 25 minutes ago)

MUCM 161250Z 07011KT 9000 SCT018 BKN100 27/26 Q1015

Closest aviation forecast (TAF) to Nuevitas Airport

Closest forecast is Ignacio Agramonte International Airport, 33.9 nm (62.7 km) WSW.

2024/06/16 12:07 (retrieved 1 hour ago)

TAF MUCM 161100Z 1612/1712 04006KT 9000 FEW020 BECMG 1617/1618 03012KT SCT020 BECMG 1701/1702 04005KT